Time;durP1;ratioP1;P1;durP2;ratioP2;P2;SDS_P1;SDS_P2;PMS_P1;PMS_P2;Temp;Humidity;BMP_temperature;BMP_pressure;BME280_temperature;BME280_humidity;BME280_pressure;Samples;Min_cycle;Max_cycle;Signal;HPM_P1;HPM_P2
2021/09/09 00:00:44;;;;;;;;;15.50;14.50;;;;;26.56;46.68;100579.34;5009784;28;45412;-53
2021/09/09 00:03:09;;;;;;;;;15.25;15.25;;;;;26.51;46.91;100576.19;5014447;28;45266;-53
2021/09/09 00:05:35;;;;;;;;;16.00;14.25;;;;;26.48;46.49;100571.09;5016626;28;45417;-53
2021/09/09 00:08:01;;;;;;;;;17.50;15.50;;;;;26.44;46.31;100573.19;5017231;28;47122;-53
2021/09/09 00:10:27;;;;;;;;;17.25;16.75;;;;;26.39;46.54;100563.75;5014381;28;45477;-51
2021/09/09 00:12:52;;;;;;;;;18.00;16.00;;;;;26.37;46.83;100563.06;5017122;28;45393;-51
2021/09/09 00:15:18;;;;;;;;;16.75;16.00;;;;;26.34;46.73;100558.78;5013118;28;45268;-51
2021/09/09 00:17:43;;;;;;;;;14.50;12.75;;;;;26.30;46.96;100559.16;5010796;28;46392;-52
2021/09/09 00:20:10;;;;;;;;;17.75;16.75;;;;;26.22;47.19;100547.19;5013003;28;45349;-52
2021/09/09 00:22:36;;;;;;;;;15.75;15.75;;;;;26.18;46.71;100544.91;5010223;28;45555;-53
2021/09/09 00:25:02;;;;;;;;;14.25;13.25;;;;;26.11;46.96;100542.72;5013197;28;45451;-53
2021/09/09 00:27:27;;;;;;;;;14.00;13.25;;;;;26.07;47.54;100533.16;5010565;28;46395;-53
2021/09/09 00:29:53;;;;;;;;;13.00;13.00;;;;;26.05;47.47;100528.84;5014860;28;45433;-50
2021/09/09 00:32:18;;;;;;;;;11.50;11.50;;;;;25.99;46.94;100519.47;5013645;28;45469;-53
2021/09/09 00:34:43;;;;;;;;;14.00;12.75;;;;;25.98;47.42;100511.53;5013708;28;45534;-53
2021/09/09 00:37:09;;;;;;;;;15.75;13.50;;;;;25.94;47.80;100521.69;5013820;28;46143;-52
2021/09/09 00:39:34;;;;;;;;;12.25;12.25;;;;;25.88;47.40;100530.25;5013269;28;45358;-53
2021/09/09 00:41:59;;;;;;;;;12.75;12.50;;;;;25.85;47.27;100526.00;5017566;28;45518;-52
2021/09/09 00:44:26;;;;;;;;;10.75;7.25;;;;;25.81;47.59;100532.63;5012536;28;45377;-53
2021/09/09 00:47:07;;;;;;;;;18.00;12.50;;;;;25.76;47.66;100542.88;5016806;28;45526;-50
2021/09/09 00:49:34;;;;;;;;;16.25;14.00;;;;;25.72;47.92;100533.34;5010257;28;45538;-53
2021/09/09 00:52:00;;;;;;;;;14.25;13.25;;;;;25.67;47.64;100536.41;5019632;28;45392;-53
2021/09/09 00:54:26;;;;;;;;;12.50;12.50;;;;;25.62;47.87;100541.31;5015839;28;45558;-53
2021/09/09 00:56:52;;;;;;;;;11.75;11.75;;;;;25.58;47.55;100532.63;5013795;28;46859;-53
2021/09/09 00:59:18;;;;;;;;;13.00;13.00;;;;;25.55;47.69;100538.25;5014569;28;45663;-50
2021/09/09 01:01:44;;;;;;;;;13.00;12.50;;;;;25.53;48.17;100537.53;5013087;28;45353;-53
2021/09/09 01:04:10;;;;;;;;;11.25;11.00;;;;;25.52;47.51;100548.41;5013630;28;45266;-53
2021/09/09 01:06:36;;;;;;;;;13.25;11.75;;;;;25.49;47.88;100544.13;5018568;28;45232;-53
2021/09/09 01:09:02;;;;;;;;;14.00;13.00;;;;;25.48;47.69;100550.50;5016467;28;45316;-52
2021/09/09 01:11:27;;;;;;;;;14.00;11.00;;;;;25.46;47.64;100556.00;5016987;28;45337;-52
2021/09/09 01:14:04;;;;;;;;;12.50;12.00;;;;;25.44;47.99;100547.19;5011509;28;45289;-51
2021/09/09 01:16:29;;;;;;;;;8.25;8.00;;;;;25.43;48.13;100545.50;5015659;28;47042;-52
2021/09/09 01:18:54;;;;;;;;;14.00;12.50;;;;;25.42;47.83;100537.53;5013457;28;45431;-51
2021/09/09 01:21:20;;;;;;;;;11.75;9.50;;;;;25.39;48.33;100538.63;5017740;28;45356;-49
2021/09/09 01:23:48;;;;;;;;;14.25;14.25;;;;;25.36;48.28;100535.31;5014408;28;45510;-51
2021/09/09 01:26:14;;;;;;;;;12.75;12.50;;;;;25.32;48.53;100537.41;5017118;28;45405;-51
2021/09/09 01:28:40;;;;;;;;;12.75;11.75;;;;;25.25;48.03;100533.47;5011553;28;45484;-52
2021/09/09 01:31:05;;;;;;;;;13.00;11.25;;;;;25.25;48.32;100546.94;5015914;28;45215;-51
2021/09/09 01:33:30;;;;;;;;;13.00;13.00;;;;;25.22;48.64;100548.03;5009922;28;45390;-52
2021/09/09 01:35:56;;;;;;;;;13.25;13.00;;;;;25.14;48.77;100550.44;5014800;28;45318;-50
2021/09/09 01:38:23;;;;;;;;;15.00;13.50;;;;;25.17;48.33;100554.72;5015920;28;45313;-51
2021/09/09 01:40:49;;;;;;;;;12.50;12.50;;;;;25.13;48.89;100565.75;5013257;28;45285;-51
2021/09/09 01:43:15;;;;;;;;;12.50;12.25;;;;;25.13;48.36;100570.25;5014904;28;45496;-51
2021/09/09 01:45:41;;;;;;;;;12.25;12.25;;;;;25.11;48.79;100570.38;5012086;28;45488;-52
2021/09/09 01:48:07;;;;;;;;;18.25;13.00;;;;;25.09;49.15;100575.03;5014499;28;45377;-52
2021/09/09 01:50:32;;;;;;;;;12.50;12.50;;;;;25.06;48.59;100574.41;5018055;28;45472;-50
2021/09/09 01:52:58;;;;;;;;;14.75;14.75;;;;;25.06;48.71;100574.41;5012839;28;45694;-51
2021/09/09 01:55:23;;;;;;;;;14.25;13.25;;;;;25.06;48.51;100571.72;5015646;28;45397;-50
2021/09/09 01:57:49;;;;;;;;;13.75;13.50;;;;;25.04;48.76;100569.13;5012104;28;46453;-51
2021/09/09 02:00:14;;;;;;;;;16.25;14.50;;;;;25.03;48.34;100578.19;5013698;28;45931;-50
2021/09/09 02:02:43;;;;;;;;;12.75;12.75;;;;;25.03;48.56;100580.00;5013975;28;45668;-50
2021/09/09 02:05:10;;;;;;;;;15.50;13.50;;;;;25.01;48.58;100576.59;5016443;28;46353;-51
2021/09/09 02:07:35;;;;;;;;;14.25;13.50;;;;;25.03;48.67;100571.94;5011375;28;45498;-52
2021/09/09 02:10:00;;;;;;;;;16.25;15.00;;;;;25.03;48.77;100574.63;5015637;28;45369;-50
2021/09/09 02:12:26;;;;;;;;;14.50;14.00;;;;;25.00;48.81;100578.41;5009575;28;45323;-52
2021/09/09 02:14:52;;;;;;;;;14.50;14.50;;;;;24.99;48.74;100577.56;5014461;28;45981;-53
2021/09/09 02:17:17;;;;;;;;;17.00;16.00;;;;;24.99;49.11;100574.88;5016014;28;45403;-52
2021/09/09 02:19:42;;;;;;;;;16.50;15.00;;;;;24.99;49.25;100579.38;5018469;28;45320;-51
2021/09/09 02:22:08;;;;;;;;;15.75;15.75;;;;;24.98;49.33;100575.84;5012421;28;45301;-49
2021/09/09 02:24:33;;;;;;;;;14.25;14.25;;;;;24.98;49.07;100578.53;5017073;28;46213;-52
2021/09/09 02:26:58;;;;;;;;;16.75;16.00;;;;;24.99;48.62;100576.69;5011460;28;45352;-52
2021/09/09 02:29:24;;;;;;;;;16.25;14.00;;;;;24.99;49.18;100584.75;5014579;28;45301;-52
2021/09/09 02:31:49;;;;;;;;;17.50;15.75;;;;;24.96;48.92;100585.84;5014199;28;45466;-51
2021/09/09 02:34:14;;;;;;;;;13.50;12.00;;;;;24.96;49.00;100575.09;5016542;28;46002;-52
2021/09/09 02:36:40;;;;;;;;;15.50;14.00;;;;;24.96;48.97;100572.41;5011800;28;45325;-51
2021/09/09 02:39:05;;;;;;;;;17.00;15.25;;;;;24.96;49.19;100561.66;5015578;28;45904;-52
2021/09/09 02:41:30;;;;;;;;;14.00;14.00;;;;;24.97;49.14;100560.69;5009455;28;45528;-52
2021/09/09 02:43:56;;;;;;;;;15.25;14.25;;;;;24.96;49.01;100561.66;5018080;28;47249;-52
2021/09/09 02:46:21;;;;;;;;;16.75;16.00;;;;;24.97;49.22;100563.38;5015421;28;45252;-50
2021/09/09 02:48:46;;;;;;;;;15.00;14.50;;;;;24.97;49.04;100565.22;5012933;28;45333;-51
2021/09/09 02:51:12;;;;;;;;;16.25;15.25;;;;;24.96;49.55;100575.09;5017280;28;45464;-53
2021/09/09 02:53:37;;;;;;;;;18.25;17.00;;;;;24.96;49.35;100575.09;5010876;28;46038;-52
2021/09/09 02:56:03;;;;;;;;;16.00;16.00;;;;;24.95;49.28;100573.38;5009870;28;45823;-50
2021/09/09 02:58:28;;;;;;;;;17.25;14.75;;;;;24.91;49.55;100569.25;4996633;28;45491;-52
2021/09/09 03:00:53;;;;;;;;;17.50;16.75;;;;;24.92;49.30;100568.28;4994936;28;45468;-51
2021/09/09 03:03:21;;;;;;;;;18.25;14.50;;;;;24.92;49.23;100562.91;4992878;28;46147;-52
2021/09/09 03:05:46;;;;;;;;;15.50;15.50;;;;;24.89;48.96;100568.53;4990840;28;45526;-52
2021/09/09 03:08:11;;;;;;;;;17.50;13.00;;;;;24.91;49.62;100571.09;4992162;28;45503;-51
2021/09/09 03:10:37;;;;;;;;;18.25;16.25;;;;;24.89;49.64;100568.53;4992171;28;45345;-52
2021/09/09 03:13:02;;;;;;;;;17.75;16.75;;;;;24.90;49.47;100566.69;4995372;28;45321;-50
2021/09/09 03:15:27;;;;;;;;;17.50;15.00;;;;;24.88;49.42;100565.94;4995562;28;45297;-49
2021/09/09 03:17:53;;;;;;;;;18.25;17.00;;;;;24.87;49.85;100559.72;4993101;28;45388;-52
2021/09/09 03:20:18;;;;;;;;;20.25;20.25;;;;;24.87;49.69;100554.34;4995232;28;45460;-49
2021/09/09 03:22:44;;;;;;;;;17.75;16.50;;;;;24.86;49.78;100552.63;4992958;28;46456;-52
2021/09/09 03:25:10;;;;;;;;;16.75;15.25;;;;;24.85;49.80;100550.06;4996190;28;45552;-50
2021/09/09 03:27:35;;;;;;;;;18.25;15.25;;;;;24.83;49.81;100553.72;4991236;28;45621;-50
2021/09/09 03:30:01;;;;;;;;;19.00;18.00;;;;;24.80;49.75;100548.59;4995280;28;45623;-50
2021/09/09 03:32:26;;;;;;;;;22.50;21.25;;;;;24.72;49.48;100532.19;4988611;28;46716;-51
2021/09/09 03:34:51;;;;;;;;;21.25;20.25;;;;;24.72;49.84;100529.50;4995878;28;45357;-52
2021/09/09 03:37:17;;;;;;;;;18.00;17.50;;;;;24.77;49.87;100532.69;4994583;28;45424;-50
2021/09/09 03:39:42;;;;;;;;;22.25;18.00;;;;;24.77;50.13;100537.22;4993292;28;45487;-52
2021/09/09 03:42:07;;;;;;;;;23.00;19.75;;;;;24.74;49.87;100537.44;4992144;28;46190;-51
2021/09/09 03:44:33;;;;;;;;;23.75;20.75;;;;;24.75;50.15;100539.16;4992705;28;45582;-50
2021/09/09 03:46:58;;;;;;;;;19.25;17.50;;;;;24.73;50.42;100535.72;4990620;28;45452;-49
2021/09/09 03:49:23;;;;;;;;;16.25;15.25;;;;;24.70;50.19;100546.72;4992560;28;45453;-48
2021/09/09 03:51:49;;;;;;;;;19.50;18.75;;;;;24.67;50.50;100540.59;4994971;28;46178;-49
2021/09/09 03:54:14;;;;;;;;;20.75;17.25;;;;;24.65;50.38;100550.63;4991698;28;45294;-51
2021/09/09 03:56:39;;;;;;;;;19.25;18.25;;;;;24.64;50.50;100546.22;5003884;28;45540;-51
2021/09/09 03:59:05;;;;;;;;;18.00;16.50;;;;;24.63;50.36;100540.94;5010127;28;45637;-51
2021/09/09 04:01:30;;;;;;;;;18.75;17.00;;;;;24.62;50.43;100550.81;5009642;28;46865;-51
2021/09/09 04:03:55;;;;;;;;;19.25;18.25;;;;;24.61;50.07;100550.94;5018784;28;45332;-47
2021/09/09 04:06:22;;;;;;;;;18.50;17.75;;;;;24.61;50.34;100546.41;5011871;28;45323;-51
2021/09/09 04:08:47;;;;;;;;;22.25;22.25;;;;;24.54;50.31;100539.81;5019960;28;45336;-50
2021/09/09 04:11:13;;;;;;;;;23.50;22.25;;;;;24.58;50.44;100549.34;5010333;28;46298;-52
2021/09/09 04:13:38;;;;;;;;;18.00;18.00;;;;;24.56;50.39;100551.28;5016345;28;45418;-49
2021/09/09 04:16:04;;;;;;;;;24.50;21.75;;;;;24.56;50.53;100553.13;5015845;28;45345;-54
2021/09/09 04:18:29;;;;;;;;;21.75;20.50;;;;;24.54;50.49;100547.88;5016512;28;45305;-49
2021/09/09 04:20:55;;;;;;;;;21.25;20.50;;;;;24.53;50.83;100540.78;5018537;28;46562;-50
2021/09/09 04:23:20;;;;;;;;;19.25;17.75;;;;;24.53;50.33;100529.16;5014329;28;45210;-50
2021/09/09 04:25:46;;;;;;;;;21.50;20.75;;;;;24.50;50.82;100520.38;5017787;28;45345;-48
2021/09/09 04:28:11;;;;;;;;;23.00;20.75;;;;;24.51;50.84;100521.22;5020411;28;45357;-50
2021/09/09 04:30:36;;;;;;;;;23.75;22.50;;;;;24.49;50.70;100513.31;5014889;28;45237;-51
2021/09/09 04:33:02;;;;;;;;;24.50;22.75;;;;;24.48;51.03;100508.91;5020639;28;45324;-49
2021/09/09 04:35:27;;;;;;;;;25.00;25.00;;;;;24.45;50.86;100508.28;5012493;28;45302;-51
2021/09/09 04:37:52;;;;;;;;;25.25;23.75;;;;;24.42;50.98;100511.22;5019147;28;45483;-49
2021/09/09 04:40:18;;;;;;;;;25.25;21.75;;;;;24.41;50.93;100509.50;5010284;28;46060;-51
2021/09/09 04:42:43;;;;;;;;;26.00;24.25;;;;;24.36;51.07;100507.16;5016976;28;45317;-51
2021/09/09 04:45:09;;;;;;;;;26.75;21.00;;;;;24.35;51.01;100510.81;5014792;28;45286;-47
2021/09/09 04:47:36;;;;;;;;;24.75;21.00;;;;;24.33;51.01;100510.94;5015887;28;45358;-51
2021/09/09 04:50:02;;;;;;;;;27.75;25.00;;;;;24.32;51.06;100509.19;5013395;28;46850;-51
2021/09/09 04:52:27;;;;;;;;;25.25;24.25;;;;;24.31;51.40;100506.66;5019228;28;45300;-50
2021/09/09 04:54:53;;;;;;;;;23.75;22.75;;;;;24.31;51.29;100509.31;5011886;28;45311;-51
2021/09/09 04:57:18;;;;;;;;;26.25;23.50;;;;;24.31;51.15;100506.66;5014220;28;45572;-51
2021/09/09 04:59:43;;;;;;;;;23.75;23.25;;;;;24.27;51.17;100510.53;5016964;28;47634;-49
2021/09/09 05:02:09;;;;;;;;;25.75;25.75;;;;;24.27;51.14;100511.38;5012082;28;45290;-50
2021/09/09 05:04:34;;;;;;;;;30.25;27.50;;;;;24.26;51.19;100506.97;5014454;28;45621;-51
2021/09/09 05:07:00;;;;;;;;;27.50;24.00;;;;;24.26;51.52;100519.56;5020555;28;45474;-50
2021/09/09 05:09:25;;;;;;;;;28.25;24.50;;;;;24.25;51.23;100515.16;5012015;28;46341;-52
2021/09/09 05:11:50;;;;;;;;;28.25;28.25;;;;;24.23;51.45;100506.38;5019633;28;45469;-52
2021/09/09 05:14:15;;;;;;;;;30.50;28.00;;;;;24.20;51.34;100514.66;5010028;28;45455;-50
2021/09/09 05:16:41;;;;;;;;;27.25;25.50;;;;;24.18;52.15;100514.78;5017968;28;45524;-52
2021/09/09 05:19:08;;;;;;;;;26.75;25.50;;;;;24.16;51.86;100512.22;5014608;28;45430;-52
2021/09/09 05:21:33;;;;;;;;;31.50;28.50;;;;;24.15;51.95;100513.19;5017450;28;45494;-52
2021/09/09 05:23:59;;;;;;;;;29.50;29.50;;;;;24.14;51.87;100519.50;5014309;28;45588;-50
2021/09/09 05:26:24;;;;;;;;;30.00;28.00;;;;;24.11;51.89;100519.75;5016566;28;45428;-49
2021/09/09 05:28:49;;;;;;;;;32.00;28.25;;;;;24.10;52.34;100528.78;5011825;28;46227;-51
2021/09/09 05:31:15;;;;;;;;;29.25;27.50;;;;;24.06;51.64;100529.94;5015885;28;45428;-51
2021/09/09 05:33:40;;;;;;;;;27.50;23.00;;;;;24.05;52.05;100535.44;5009872;28;45352;-51
2021/09/09 05:36:06;;;;;;;;;25.75;24.00;;;;;24.06;52.09;100537.16;5013652;28;45342;-56
2021/09/09 05:38:31;;;;;;;;;36.25;28.50;;;;;24.05;51.98;100539.00;5015701;28;46288;-53
2021/09/09 05:40:56;;;;;;;;;33.25;30.25;;;;;24.05;52.25;100541.69;5012151;28;45340;-56
2021/09/09 05:43:21;;;;;;;;;33.00;28.25;;;;;24.06;51.94;100538.00;5013025;28;45324;-59
2021/09/09 05:45:47;;;;;;;;;29.25;25.25;;;;;24.08;52.40;100535.22;5000789;28;45563;-59
2021/09/09 05:48:12;;;;;;;;;30.50;27.75;;;;;24.11;52.23;100543.03;5014772;28;45607;-60
2021/09/09 05:50:37;;;;;;;;;26.25;26.25;;;;;24.12;52.26;100548.28;5013152;28;45449;-63
2021/09/09 05:53:03;;;;;;;;;28.50;28.25;;;;;24.12;51.94;100545.59;5006418;28;45386;-57
2021/09/09 05:55:28;;;;;;;;;34.50;30.75;;;;;24.13;52.10;100557.22;5017476;28;45301;-59
2021/09/09 05:57:54;;;;;;;;;32.75;30.25;;;;;24.09;52.62;100553.06;5009807;28;46125;-59
2021/09/09 06:00:19;;;;;;;;;37.00;31.25;;;;;24.08;52.92;100567.44;5007418;28;45357;-60
2021/09/09 06:02:47;;;;;;;;;30.75;29.75;;;;;24.01;53.34;100569.69;5017017;28;45553;-59
2021/09/09 06:05:14;;;;;;;;;31.75;29.75;;;;;23.96;53.65;100574.53;5003726;28;45944;-60
2021/09/09 06:07:40;;;;;;;;;29.00;27.25;;;;;23.88;53.63;100572.41;5009369;28;45448;-61
2021/09/09 06:10:08;;;;;;;;;35.50;31.50;;;;;23.83;53.72;100574.56;5008408;28;45360;-57
2021/09/09 06:12:33;;;;;;;;;33.00;29.25;;;;;23.82;52.91;100572.84;5007344;28;45483;-62
2021/09/09 06:14:59;;;;;;;;;30.00;27.75;;;;;23.81;53.17;100572.00;5019336;28;45341;-62
2021/09/09 06:17:24;;;;;;;;;31.25;29.75;;;;;23.80;53.63;100575.66;5006999;28;46530;-58
2021/09/09 06:19:49;;;;;;;;;33.75;31.00;;;;;23.82;53.51;100578.22;5009115;28;45301;-62
2021/09/09 06:22:15;;;;;;;;;33.75;31.00;;;;;23.84;53.20;100587.00;5002063;28;45259;-62
2021/09/09 06:24:40;;;;;;;;;33.25;31.00;;;;;23.84;53.29;100584.34;5012854;28;45423;-59
2021/09/09 06:27:06;;;;;;;;;34.75;31.50;;;;;23.80;53.56;100580.16;5013376;28;45911;-59
2021/09/09 06:29:31;;;;;;;;;36.00;31.50;;;;;23.81;53.63;100590.78;5008712;28;45362;-59
2021/09/09 06:31:56;;;;;;;;;30.25;30.25;;;;;23.80;53.89;100597.09;5006835;28;45244;-59
2021/09/09 06:34:22;;;;;;;;;35.50;30.25;;;;;23.79;53.79;100595.38;5012485;28;45191;-59
2021/09/09 06:36:47;;;;;;;;;30.75;30.00;;;;;23.78;53.98;100598.19;5012374;28;46944;-58
2021/09/09 06:39:14;;;;;;;;;34.50;30.50;;;;;23.76;54.13;100598.31;5024781;28;45258;-59
2021/09/09 06:41:44;;;;;;;;;31.50;28.75;;;;;23.73;54.31;100601.19;5013692;28;45165;-59
2021/09/09 06:44:09;;;;;;;;;36.75;29.25;;;;;23.73;54.29;100608.41;5008838;28;45405;-59
2021/09/09 06:46:34;;;;;;;;;36.00;30.25;;;;;23.69;54.11;100600.56;5016284;28;45340;-58
2021/09/09 06:49:00;;;;;;;;;26.75;24.25;;;;;23.72;54.00;100606.69;5015032;28;45314;-60
2021/09/09 06:51:25;;;;;;;;;35.50;31.75;;;;;23.75;53.36;100609.13;5006535;28;45459;-52
2021/09/09 06:53:51;;;;;;;;;35.25;31.75;;;;;23.76;54.11;100613.53;5025455;28;45561;-56
2021/09/09 06:56:16;;;;;;;;;27.75;26.75;;;;;23.79;53.71;100618.69;5012581;28;46866;-57
2021/09/09 06:58:41;;;;;;;;;32.75;29.75;;;;;23.81;53.88;100616.72;5015112;28;45397;-58
2021/09/09 07:01:07;;;;;;;;;31.00;30.00;;;;;23.83;54.06;100615.66;5018704;28;45340;-59
2021/09/09 07:03:32;;;;;;;;;33.25;30.25;;;;;23.83;53.87;100622.84;5021675;28;45482;-59
2021/09/09 07:05:57;;;;;;;;;25.50;24.75;;;;;23.83;54.25;100623.69;5017750;28;45662;-59
2021/09/09 07:08:23;;;;;;;;;28.25;28.00;;;;;23.84;53.57;100624.56;5017017;28;45257;-59
2021/09/09 07:10:48;;;;;;;;;34.50;29.25;;;;;23.84;53.82;100617.38;5009990;28;45420;-59
2021/09/09 07:13:17;;;;;;;;;38.50;32.00;;;;;23.85;53.97;100612.88;5017384;28;45360;-59
2021/09/09 07:15:43;;;;;;;;;32.00;29.75;;;;;23.90;53.78;100612.53;5017086;28;47217;-59
2021/09/09 07:18:08;;;;;;;;;29.00;28.25;;;;;23.92;53.49;100611.47;5012487;28;45622;-59
2021/09/09 07:20:33;;;;;;;;;39.75;35.00;;;;;23.92;53.27;100614.16;5014345;28;45408;-59
2021/09/09 07:22:59;;;;;;;;;48.25;40.25;;;;;23.92;53.78;100614.16;5017680;28;45460;-59
2021/09/09 07:25:24;;;;;;;;;43.00;33.50;;;;;23.93;53.84;100613.19;5017151;28;46029;-56
2021/09/09 07:27:49;;;;;;;;;60.00;46.50;;;;;23.94;53.34;100614.06;5017152;28;45775;-56
2021/09/09 07:30:15;;;;;;;;;39.25;32.75;;;;;23.96;53.83;100621.03;5017544;28;45459;-58
2021/09/09 07:32:40;;;;;;;;;35.50;32.00;;;;;23.95;53.56;100622.00;5009666;28;45876;-58
2021/09/09 07:35:06;;;;;;;;;32.00;30.25;;;;;23.98;53.83;100616.41;5016761;28;46222;-58
2021/09/09 07:37:31;;;;;;;;;35.00;30.75;;;;;24.00;53.71;100619.00;5017867;28;45466;-58
2021/09/09 07:39:57;;;;;;;;;38.50;32.75;;;;;23.99;54.07;100620.81;5013907;28;45451;-58
2021/09/09 07:42:22;;;;;;;;;37.50;32.50;;;;;23.98;53.82;100626.28;5019988;28;45433;-58
2021/09/09 07:44:48;;;;;;;;;36.75;32.75;;;;;23.94;53.99;100620.28;5020139;28;46381;-58
2021/09/09 07:47:13;;;;;;;;;45.50;36.25;;;;;23.94;53.69;100624.81;5020247;28;45560;-58
2021/09/09 07:49:38;;;;;;;;;36.25;30.75;;;;;23.92;54.07;100627.56;5014804;28;45241;-58
2021/09/09 07:52:04;;;;;;;;;32.25;29.25;;;;;23.90;53.96;100624.13;5021736;28;45459;-58
2021/09/09 07:54:29;;;;;;;;;31.75;30.75;;;;;23.90;53.89;100624.13;5021478;28;45430;-58
2021/09/09 07:56:55;;;;;;;;;33.50;29.75;;;;;23.90;54.08;100624.13;5021797;28;45485;-58
2021/09/09 07:59:20;;;;;;;;;39.00;31.75;;;;;23.90;53.96;100631.31;5022009;28;46385;-58
2021/09/09 08:01:45;;;;;;;;;36.00;31.75;;;;;23.91;53.92;100624.97;5020351;28;45511;-58
2021/09/09 08:04:15;;;;;;;;;31.50;30.00;;;;;23.91;53.97;100624.97;5020752;28;46303;-58
2021/09/09 08:06:42;;;;;;;;;29.75;27.50;;;;;23.89;54.05;100622.41;5017036;28;45489;-53
2021/09/09 08:09:08;;;;;;;;;33.50;29.00;;;;;23.89;53.96;100627.78;5021882;28;45274;-57
2021/09/09 08:11:33;;;;;;;;;35.50;30.25;;;;;23.88;54.22;100620.69;5022025;28;45250;-57
2021/09/09 08:13:59;;;;;;;;;35.00;29.75;;;;;23.89;53.90;100618.88;5011962;28;46308;-56
2021/09/09 08:16:24;;;;;;;;;31.75;30.50;;;;;23.91;53.59;100623.19;5020116;28;45476;-56
2021/09/09 08:18:49;;;;;;;;;34.75;31.50;;;;;23.91;53.87;100616.94;5022689;28;45758;-58
2021/09/09 08:21:15;;;;;;;;;34.50;31.25;;;;;23.94;53.79;100620.28;5009341;28;45356;-59
2021/09/09 08:23:41;;;;;;;;;38.00;32.00;;;;;23.96;53.79;100617.47;5022110;28;45304;-59
2021/09/09 08:26:06;;;;;;;;;37.50;32.25;;;;;23.97;53.53;100624.56;5022020;28;45463;-59
2021/09/09 08:28:32;;;;;;;;;36.50;32.00;;;;;23.99;53.64;100623.47;5022083;28;45309;-59
2021/09/09 08:30:57;;;;;;;;;36.75;32.25;;;;;23.98;53.52;100621.75;5016584;28;45369;-59
2021/09/09 08:33:22;;;;;;;;;27.00;25.75;;;;;23.99;53.93;100622.66;5004403;28;46178;-60
2021/09/09 08:35:48;;;;;;;;;29.25;27.00;;;;;23.94;53.96;100631.00;5019841;28;45353;-61
2021/09/09 08:38:13;;;;;;;;;25.75;25.75;;;;;23.98;53.71;100639.69;5027059;28;45379;-61
2021/09/09 08:40:40;;;;;;;;;28.75;28.75;;;;;24.00;53.43;100645.84;5021736;28;45360;-61
2021/09/09 08:43:06;;;;;;;;;39.50;33.25;;;;;23.98;53.45;100648.59;5021604;28;47102;-59
2021/09/09 08:45:32;;;;;;;;;34.00;31.00;;;;;24.00;53.72;100657.41;5019987;28;45383;-60
2021/09/09 08:48:02;;;;;;;;;30.50;29.00;;;;;24.00;53.89;100657.41;5012525;28;45249;-60
2021/09/09 08:50:28;;;;;;;;;30.25;28.25;;;;;24.00;53.86;100644.00;5019158;28;45506;-60
2021/09/09 08:52:54;;;;;;;;;28.00;25.00;;;;;24.00;53.89;100651.19;5020226;28;47245;-60
2021/09/09 08:55:20;;;;;;;;;28.50;26.25;;;;;24.01;53.51;100652.88;5008664;28;45377;-60
2021/09/09 08:57:45;;;;;;;;;31.25;28.00;;;;;24.01;53.51;100647.53;5020080;28;45398;-60
2021/09/09 09:00:11;;;;;;;;;26.75;26.75;;;;;24.03;53.43;100645.59;5019911;28;45538;-63
2021/09/09 09:02:48;;;;;;;;;29.50;27.00;;;;;24.04;53.76;100643.75;5021515;28;45253;-60
2021/09/09 09:05:13;;;;;;;;;24.75;23.25;;;;;24.02;53.72;100660.84;5017455;28;45270;-60
2021/09/09 09:07:38;;;;;;;;;27.75;26.25;;;;;24.04;53.66;100649.13;5021541;28;45237;-60
2021/09/09 09:10:07;;;;;;;;;29.00;23.75;;;;;24.03;53.80;100656.31;5020957;28;45257;-60
2021/09/09 09:12:44;;;;;;;;;28.00;23.00;;;;;24.02;53.80;100659.97;5021381;28;45628;-60
2021/09/09 09:15:14;;;;;;;;;30.25;29.25;;;;;24.01;53.81;100659.13;5014148;28;45558;-60
2021/09/09 09:17:58;;;;;;;;;33.25;28.75;;;;;23.99;54.01;100661.06;5021376;28;45515;-60
2021/09/09 09:20:25;;;;;;;;;26.00;25.00;;;;;23.97;54.17;100660.28;5010558;28;45387;-60
2021/09/09 09:22:52;;;;;;;;;29.00;26.25;;;;;23.98;54.19;100666.53;5017177;28;46238;-60
2021/09/09 09:25:18;;;;;;;;;33.75;27.25;;;;;23.94;54.05;100663.22;5019905;28;45340;-60
2021/09/09 09:27:46;;;;;;;;;31.50;30.00;;;;;23.93;53.91;100657.97;5018634;28;45344;-60
2021/09/09 09:30:13;;;;;;;;;29.00;27.75;;;;;23.90;54.25;100659.00;5019812;28;45204;-60
2021/09/09 09:32:49;;;;;;;;;32.75;26.50;;;;;23.92;54.04;100664.28;5018542;28;45265;-62
2021/09/09 09:35:16;;;;;;;;;32.75;27.00;;;;;23.94;53.95;100667.75;5018830;28;45372;-63
2021/09/09 09:37:57;;;;;;;;;28.50;26.50;;;;;23.92;54.00;100666.97;5026751;28;45347;-62
2021/09/09 09:40:31;;;;;;;;;24.50;22.50;;;;;23.90;53.95;100667.06;5018216;28;46356;-61
2021/09/09 09:42:57;;;;;;;;;23.00;23.00;;;;;23.92;54.24;100665.13;5019399;28;47303;-59
2021/09/09 09:45:23;;;;;;;;;30.50;26.25;;;;;23.84;54.27;100657.63;5019034;28;45982;-59
2021/09/09 09:47:49;;;;;;;;;26.25;24.00;;;;;23.88;54.43;100665.47;5019927;28;45392;-60
2021/09/09 09:50:20;;;;;;;;;21.50;21.25;;;;;23.89;54.64;100670.72;5020180;28;45318;-59
2021/09/09 09:52:46;;;;;;;;;28.00;28.00;;;;;23.91;54.23;100665.22;5009634;28;47110;-59
2021/09/09 09:55:12;;;;;;;;;26.00;21.50;;;;;23.93;54.26;100666.03;5017943;28;45893;-60
2021/09/09 09:57:57;;;;;;;;;23.50;22.50;;;;;23.97;53.91;100668.34;5019311;28;45262;-60
2021/09/09 10:00:23;;;;;;;;;25.50;22.75;;;;;24.00;54.02;100667.31;5019923;28;45574;-63
2021/09/09 10:02:49;;;;;;;;;26.25;24.00;;;;;24.06;54.16;100660.63;5020411;28;45250;-61
2021/09/09 10:05:14;;;;;;;;;26.25;24.25;;;;;24.10;54.03;100646.88;5020234;28;45452;-62
2021/09/09 10:07:40;;;;;;;;;24.00;22.00;;;;;24.18;54.03;100659.72;5020546;28;45355;-60
2021/09/09 10:10:06;;;;;;;;;31.75;30.25;;;;;24.26;54.18;100665.38;5020205;28;45646;-54
2021/09/09 10:12:33;;;;;;;;;26.75;24.75;;;;;24.35;53.88;100658.47;5020540;28;46982;-55
2021/09/09 10:15:01;;;;;;;;;26.00;24.00;;;;;24.42;54.11;100651.69;5019917;28;45357;-57
2021/09/09 10:17:27;;;;;;;;;48.00;37.75;;;;;24.55;54.12;100657.00;5018318;28;45571;-57
2021/09/09 10:19:53;;;;;;;;;30.00;25.75;;;;;24.67;53.90;100652.59;5014131;28;45246;-55
2021/09/09 10:22:21;;;;;;;;;30.00;26.75;;;;;24.80;54.07;100655.19;5012391;28;46273;-57
2021/09/09 10:25:04;;;;;;;;;27.00;25.00;;;;;24.94;53.69;100656.81;5020150;28;45451;-57
2021/09/09 10:27:34;;;;;;;;;28.25;21.50;;;;;25.04;54.24;100660.53;5020081;28;45231;-57
2021/09/09 10:30:06;;;;;;;;;26.75;23.50;;;;;25.12;53.59;100655.41;5019686;28;45487;-58
2021/09/09 10:32:31;;;;;;;;;24.75;23.25;;;;;25.21;53.93;100651.16;5016570;28;46969;-57
2021/09/09 10:35:19;;;;;;;;;26.00;23.00;;;;;25.32;53.76;100658.41;5011301;28;45442;-57
2021/09/09 10:37:56;;;;;;;;;27.75;25.00;;;;;25.43;53.50;100660.28;5027279;28;45482;-57
2021/09/09 10:40:39;;;;;;;;;25.25;24.00;;;;;25.51;53.65;100656.97;5019281;28;45482;-57
2021/09/09 10:43:13;;;;;;;;;21.50;20.50;;;;;25.60;52.96;100645.50;5010305;28;46324;-61
2021/09/09 10:45:44;;;;;;;;;22.25;20.25;;;;;25.73;53.54;100640.00;5018302;28;45507;-63
2021/09/09 10:48:15;;;;;;;;;25.25;25.25;;;;;25.84;52.84;100645.38;5001340;28;45507;-66
2021/09/09 10:51:10;;;;;;;;;19.75;18.75;;;;;25.99;53.18;100647.78;4999758;28;45532;-63
2021/09/09 10:53:47;;;;;;;;;21.00;21.00;;;;;26.11;52.66;100652.22;5000328;28;46969;-69
2021/09/09 10:56:35;;;;;;;;;19.25;17.50;;;;;26.24;52.46;100646.72;5000052;28;45335;-69
2021/09/09 10:59:19;;;;;;;;;16.50;16.50;;;;;26.39;52.15;100656.22;5000104;28;45348;-63
2021/09/09 11:01:46;;;;;;;;;27.50;23.00;;;;;26.52;52.36;100647.97;4999931;28;45250;-60
2021/09/09 11:04:24;;;;;;;;;17.25;16.25;;;;;26.68;52.36;100654.75;5000006;28;45470;-56
2021/09/09 11:06:50;;;;;;;;;21.50;18.50;;;;;26.80;51.78;100655.59;4999598;28;45422;-59